createdAt,value
2022-10-20T00:03:42.614Z,17.00
2022-10-20T00:08:45.996Z,14.70
2022-10-20T00:13:49.789Z,16.25
2022-10-20T00:18:51.799Z,17.23
2022-10-20T00:23:53.819Z,16.43
2022-10-20T00:28:56.553Z,15.90
2022-10-20T00:33:58.362Z,13.98
2022-10-20T00:39:01.302Z,13.43
2022-10-20T00:44:40.681Z,13.70
2022-10-20T00:49:42.556Z,13.07
2022-10-20T00:54:44.542Z,11.65
2022-10-20T00:59:46.586Z,11.07
2022-10-20T01:04:49.155Z,11.65
2022-10-20T01:09:51.085Z,11.90
2022-10-20T01:15:11.140Z,12.45
2022-10-20T01:20:28.176Z,12.02
2022-10-20T01:26:01.159Z,12.43
2022-10-20T01:31:13.050Z,9.77
2022-10-20T01:36:25.201Z,13.25
2022-10-20T01:41:35.846Z,8.20
2022-10-20T01:46:40.697Z,10.25
2022-10-20T01:57:05.198Z,13.07
2022-10-20T02:02:32.805Z,17.80
2022-10-20T02:07:34.842Z,19.25
2022-10-20T02:12:41.620Z,21.13
2022-10-20T02:17:46.698Z,20.85
2022-10-20T02:22:49.483Z,19.60
2022-10-20T02:27:51.865Z,18.17
2022-10-20T02:32:53.611Z,19.70
2022-10-20T02:37:56.820Z,18.70
2022-10-20T02:42:58.522Z,19.92
2022-10-20T02:48:00.349Z,20.08
2022-10-20T02:53:02.911Z,18.80
2022-10-20T02:58:04.655Z,19.38
2022-10-20T03:03:06.358Z,20.05
2022-10-20T03:08:08.064Z,19.42
2022-10-20T03:13:10.499Z,20.42
2022-10-20T03:18:12.157Z,20.52
2022-10-20T03:23:16.402Z,20.95
2022-10-20T03:28:20.978Z,17.98
2022-10-20T03:33:22.737Z,17.55
2022-10-20T03:38:24.510Z,17.23
2022-10-20T03:43:26.184Z,16.60
2022-10-20T03:48:27.825Z,17.77
2022-10-20T03:53:29.898Z,18.67
2022-10-20T03:58:31.559Z,17.30
2022-10-20T04:03:33.264Z,17.65
2022-10-20T04:08:35.119Z,17.08
2022-10-20T04:13:36.860Z,16.00
2022-10-20T04:18:38.704Z,15.27
2022-10-20T04:23:40.406Z,14.63
2022-10-20T04:28:42.862Z,14.88
2022-10-20T04:33:44.561Z,13.75
2022-10-20T04:38:46.253Z,11.52
2022-10-20T04:43:52.268Z,14.30
2022-10-20T04:48:54.166Z,14.20
2022-10-20T04:53:55.940Z,15.00
2022-10-20T04:58:58.625Z,14.55
2022-10-20T05:04:00.381Z,12.60
2022-10-20T05:09:05.173Z,13.50
2022-10-20T05:14:07.661Z,14.10
2022-10-20T05:19:09.734Z,14.10
2022-10-20T05:24:18.206Z,13.80
2022-10-20T05:29:24.157Z,14.15
2022-10-20T05:39:27.661Z,7.88
2022-10-20T05:44:29.477Z,7.93
2022-10-20T05:49:31.138Z,9.38
2022-10-20T05:54:32.910Z,9.43
2022-10-20T05:59:34.650Z,9.38
2022-10-20T06:04:36.472Z,9.45
2022-10-20T06:09:39.253Z,10.13
2022-10-20T06:14:40.936Z,11.23
2022-10-20T06:19:42.757Z,14.05
2022-10-20T06:24:44.982Z,13.65
2022-10-20T06:29:46.720Z,13.73
2022-10-20T06:34:48.442Z,13.50
2022-10-20T06:39:50.130Z,12.43
2022-10-20T06:44:51.964Z,13.40
2022-10-20T06:49:53.658Z,14.07
2022-10-20T06:54:55.294Z,14.32
2022-10-20T06:59:56.933Z,14.77
2022-10-20T07:04:58.621Z,14.25
2022-10-20T07:10:00.262Z,12.90
2022-10-20T07:15:01.905Z,14.95
2022-10-20T07:20:04.080Z,13.57
2022-10-20T07:25:07.121Z,13.00
2022-10-20T07:30:09.070Z,13.18
2022-10-20T07:35:10.921Z,13.50
2022-10-20T07:40:12.868Z,14.20
2022-10-20T07:45:14.657Z,13.88
2022-10-20T07:50:16.546Z,12.40
2022-10-20T07:55:37.563Z,11.52
2022-10-20T08:05:41.855Z,10.88
2022-10-20T08:10:43.534Z,10.82
2022-10-20T08:16:05.070Z,10.57
2022-10-20T08:21:07.727Z,10.10
2022-10-20T08:26:11.544Z,9.15
2022-10-20T08:31:13.707Z,9.23
2022-10-20T08:36:16.047Z,8.98
2022-10-20T08:41:21.177Z,9.30
2022-10-20T08:46:37.224Z,8.95
2022-10-20T08:51:39.051Z,9.05
2022-10-20T08:56:40.886Z,8.75
2022-10-20T09:01:42.625Z,8.68
2022-10-20T09:06:46.927Z,8.85
2022-10-20T09:11:49.185Z,9.00
2022-10-20T09:22:13.612Z,7.60
2022-10-20T09:27:18.021Z,8.32
2022-10-20T09:32:50.379Z,8.07
2022-10-20T09:38:17.419Z,9.10
2022-10-20T09:43:19.910Z,7.43
2022-10-20T09:48:28.711Z,7.55
2022-10-20T09:53:49.660Z,8.25
2022-10-20T09:58:51.666Z,7.78
2022-10-20T10:04:00.301Z,7.23
2022-10-20T10:09:02.439Z,7.70
2022-10-20T10:14:05.173Z,7.50
2022-10-20T10:19:07.728Z,7.05
2022-10-20T10:24:33.380Z,7.72
2022-10-20T10:29:36.362Z,7.07
2022-10-20T10:34:42.629Z,7.47
2022-10-20T10:39:44.593Z,6.47
2022-10-20T10:45:00.655Z,6.72
2022-10-20T10:50:26.847Z,6.70
2022-10-20T10:55:48.418Z,6.50
2022-10-20T11:01:05.719Z,6.15
2022-10-20T11:06:23.687Z,5.78
2022-10-20T11:11:41.009Z,5.93
2022-10-20T11:17:00.539Z,6.00
2022-10-20T11:22:29.813Z,6.07
2022-10-20T11:27:36.736Z,5.85
2022-10-20T11:33:05.826Z,6.25
2022-10-20T11:38:13.943Z,5.50
2022-10-20T11:43:42.995Z,6.03
2022-10-20T11:48:50.787Z,5.68
2022-10-20T11:54:14.227Z,6.07
2022-10-20T11:59:35.232Z,5.40
2022-10-20T12:04:51.768Z,5.13
2022-10-20T12:10:12.250Z,5.60
2022-10-20T12:15:24.488Z,5.35
2022-10-20T12:20:26.139Z,5.10
2022-10-20T12:25:27.783Z,5.35
2022-10-20T12:30:38.558Z,5.20
2022-10-20T12:36:14.725Z,4.93
2022-10-20T12:41:38.088Z,5.00
2022-10-20T12:46:51.315Z,4.45
2022-10-20T12:51:55.943Z,5.38
2022-10-20T12:57:38.557Z,4.85
2022-10-20T13:02:45.204Z,4.82
2022-10-20T13:07:46.948Z,4.75
2022-10-20T13:12:48.794Z,5.35
2022-10-20T13:18:01.021Z,5.35
2022-10-20T13:23:03.481Z,5.05
2022-10-20T13:34:03.179Z,4.63
2022-10-20T13:39:12.124Z,4.80
2022-10-20T13:50:06.310Z,5.00
2022-10-20T13:55:15.996Z,5.10
2022-10-20T14:00:21.915Z,5.00
2022-10-20T14:05:25.283Z,3.97
2022-10-20T14:10:42.279Z,4.22
2022-10-20T14:15:53.591Z,5.45
2022-10-20T14:21:02.808Z,4.85
2022-10-20T14:26:07.629Z,4.28
2022-10-20T14:31:13.017Z,4.72
2022-10-20T14:36:29.498Z,4.05
2022-10-20T14:41:33.722Z,3.92
2022-10-20T14:46:44.882Z,4.40
2022-10-20T14:51:56.358Z,4.00
2022-10-20T14:57:00.892Z,4.35
2022-10-20T15:02:21.396Z,4.38
2022-10-20T15:07:31.809Z,3.55
2022-10-20T15:12:36.625Z,3.88
2022-10-20T15:17:41.307Z,3.78
2022-10-20T15:22:43.235Z,4.00
2022-10-20T15:27:45.145Z,3.78
2022-10-20T15:32:48.033Z,4.10
2022-10-20T15:37:52.596Z,3.78
2022-10-20T15:42:54.931Z,4.10
2022-10-20T15:47:56.850Z,4.00
2022-10-20T15:52:58.491Z,3.88
2022-10-20T15:58:00.650Z,3.50
2022-10-20T16:03:02.478Z,3.67
2022-10-20T16:08:04.576Z,3.73
2022-10-20T16:13:06.730Z,3.70
2022-10-20T16:18:09.870Z,3.85
2022-10-20T16:23:11.837Z,3.90
2022-10-20T16:28:13.550Z,4.00
2022-10-20T16:33:15.362Z,4.03
2022-10-20T16:38:16.991Z,10.23
2022-10-20T16:43:18.679Z,5.60
2022-10-20T16:48:20.641Z,6.25
2022-10-20T16:53:23.681Z,13.30
2022-10-20T16:58:25.372Z,12.10
2022-10-20T17:03:27.329Z,7.20
2022-10-20T17:08:31.735Z,6.63
2022-10-20T17:13:35.482Z,4.88
2022-10-20T17:18:37.404Z,5.35
2022-10-20T17:23:42.673Z,4.43
2022-10-20T17:28:45.121Z,4.90
2022-10-20T17:33:47.235Z,4.43
2022-10-20T17:38:54.157Z,5.53
2022-10-20T17:43:59.154Z,6.47
2022-10-20T17:49:03.806Z,5.40
2022-10-20T17:54:05.709Z,5.10
2022-10-20T17:59:09.324Z,5.50
2022-10-20T18:04:13.597Z,5.95
2022-10-20T18:09:17.718Z,4.60
2022-10-20T18:14:20.166Z,5.70
2022-10-20T18:19:21.993Z,5.72
2022-10-20T18:24:23.967Z,4.97
2022-10-20T18:29:25.998Z,6.63
2022-10-20T18:34:28.114Z,5.40
2022-10-20T18:39:33.693Z,5.25
2022-10-20T18:44:35.902Z,6.95
2022-10-20T18:49:37.551Z,5.07
2022-10-20T18:54:39.596Z,5.63
2022-10-20T18:59:41.719Z,5.28
2022-10-20T19:04:43.420Z,4.70
2022-10-20T19:09:45.200Z,6.10
2022-10-20T19:14:46.806Z,7.28
2022-10-20T19:19:48.569Z,4.90
2022-10-20T19:24:50.305Z,5.80
2022-10-20T19:29:52.102Z,6.28
2022-10-20T19:34:53.870Z,6.00
2022-10-20T19:39:55.953Z,5.63
2022-10-20T19:44:57.606Z,6.82
2022-10-20T19:49:59.390Z,6.50
2022-10-20T19:55:01.450Z,6.33
2022-10-20T20:00:04.881Z,5.00
2022-10-20T20:05:06.873Z,5.63
2022-10-20T20:10:10.139Z,5.50
2022-10-20T20:15:11.915Z,6.85
2022-10-20T20:20:13.601Z,6.70
2022-10-20T20:25:15.371Z,6.43
2022-10-20T20:30:17.108Z,6.53
2022-10-20T20:35:18.756Z,6.35
2022-10-20T20:40:21.417Z,5.88
2022-10-20T20:45:23.221Z,7.35
2022-10-20T20:50:25.356Z,6.75
2022-10-20T20:55:27.859Z,7.10
2022-10-20T21:00:29.467Z,6.30
2022-10-20T21:05:31.130Z,6.05
2022-10-20T21:10:35.346Z,5.50
2022-10-20T21:15:36.990Z,5.65
2022-10-20T21:20:38.655Z,6.32
2022-10-20T21:25:45.870Z,6.30
2022-10-20T21:30:47.597Z,6.47
2022-10-20T21:35:49.302Z,5.95
2022-10-20T21:40:50.979Z,5.75
2022-10-20T21:45:52.597Z,5.97
2022-10-20T21:50:54.287Z,5.40
2022-10-20T21:55:55.945Z,5.95
2022-10-20T22:00:58.014Z,5.60
2022-10-20T22:06:02.569Z,5.40
2022-10-20T22:11:28.928Z,5.72
2022-10-20T22:16:33.149Z,5.88
2022-10-20T22:21:40.337Z,6.43
2022-10-20T22:26:42.666Z,6.13
2022-10-20T22:31:44.388Z,6.05
2022-10-20T22:36:46.177Z,6.40
2022-10-20T22:41:47.827Z,5.80
2022-10-20T22:46:49.482Z,6.25
2022-10-20T22:51:51.131Z,6.85
2022-10-20T22:56:53.074Z,7.97
2022-10-20T23:01:54.821Z,8.27
2022-10-20T23:12:01.775Z,8.90
2022-10-20T23:17:03.556Z,8.90
2022-10-20T23:22:05.235Z,8.88
2022-10-20T23:27:07.308Z,8.85
2022-10-20T23:32:09.097Z,8.20
2022-10-20T23:37:10.740Z,8.48
2022-10-20T23:42:12.533Z,8.70
2022-10-20T23:47:14.181Z,8.05
2022-10-20T23:52:15.998Z,8.75
2022-10-20T23:57:17.671Z,8.18
